Terminal Aerodrome Forecast
Issued by NWS Cleveland, OH

Home | Current Version | Previous Version | Graphics & Text | Print | Product List | Glossary Off
Versions: 1 2 3 4 5 6 7 8 9 10 11 12 13 14 15 16 17 18 19 20 21 22 23

000
FTUS41 KCLE 281526 AAA
TAFERI
TAF AMD
KERI 281526Z 2815/2912 35007KT 2SM BR OVC005
      TEMPO 2815/2817 1/4SM -DZ FG VV002
     FM281700 36008KT 3SM BR OVC006
     FM282000 36008KT P6SM OVC018
     FM290100 02006KT P6SM BKN025=

USA.gov is the U.S. government's official web portal to all federal, state and local government web resources and services.